Time;durP1;ratioP1;P1;durP2;ratioP2;P2;SDS_P1;SDS_P2;PMS_P1;PMS_P2;Temp;Humidity;BMP_temperature;BMP_pressure;BME280_temperature;BME280_humidity;BME280_pressure;Samples;Min_cycle;Max_cycle;Signal;HPM_P1;HPM_P2
2021/03/15 00:01:52;;;;;;;60.03;31.60;;;;;;;8.25;100.00;93548.84;10487485;28;20016;-74
2021/03/15 00:06:52;;;;;;;62.13;32.07;;;;;;;8.28;100.00;93542.91;10486496;28;20123;-74
2021/03/15 00:11:53;;;;;;;58.93;33.53;;;;;;;8.23;100.00;93539.50;10486692;28;20087;-73
2021/03/15 00:16:54;;;;;;;65.88;33.20;;;;;;;8.28;100.00;93532.22;10486995;28;20433;-73
2021/03/15 00:21:54;;;;;;;61.58;34.95;;;;;;;8.06;100.00;93524.72;10486923;28;20024;-73
2021/03/15 00:26:54;;;;;;;70.30;32.50;;;;;;;8.24;100.00;93520.47;10486560;28;20024;-73
2021/03/15 00:31:55;;;;;;;68.20;33.20;;;;;;;8.32;100.00;93519.06;10486331;28;20287;-73
2021/03/15 00:36:55;;;;;;;71.67;38.57;;;;;;;8.31;100.00;93514.78;10486626;28;20894;-74
2021/03/15 00:41:55;;;;;;;72.10;36.33;;;;;;;8.51;100.00;93505.69;10485903;28;20054;-74
2021/03/15 00:46:56;;;;;;;61.27;33.23;;;;;;;8.60;100.00;93498.59;10486112;28;20033;-73
2021/03/15 00:51:56;;;;;;;62.07;34.40;;;;;;;8.58;100.00;93491.94;10485377;28;20048;-74
2021/03/15 00:56:57;;;;;;;72.20;34.43;;;;;;;8.48;100.00;93498.22;10485927;28;20278;-73
2021/03/15 01:01:57;;;;;;;67.10;34.30;;;;;;;8.44;100.00;93494.50;10485388;28;20400;-73
2021/03/15 01:06:57;;;;;;;69.57;36.27;;;;;;;8.48;100.00;93485.63;10485750;28;20259;-73
2021/03/15 01:11:58;;;;;;;60.13;35.37;;;;;;;8.54;100.00;93470.31;10485440;28;20050;-73
2021/03/15 01:16:58;;;;;;;62.23;32.60;;;;;;;8.57;100.00;93453.66;10483812;28;20056;-74
2021/03/15 01:21:58;;;;;;;59.25;33.20;;;;;;;8.33;100.00;93449.16;10484520;28;20037;-74
2021/03/15 01:26:59;;;;;;;66.00;34.45;;;;;;;8.34;100.00;93429.34;10483866;28;20445;-74
2021/03/15 01:31:59;;;;;;;50.83;28.37;;;;;;;8.39;100.00;93421.22;10483449;28;20450;-74
2021/03/15 01:37:00;;;;;;;53.87;27.97;;;;;;;8.17;100.00;93413.00;10485165;28;20280;-74
2021/03/15 01:42:01;;;;;;;64.50;30.00;;;;;;;8.29;100.00;93404.50;10485530;28;20029;-74
2021/03/15 01:47:02;;;;;;;45.00;26.30;;;;;;;8.28;100.00;93387.66;10484474;28;20033;-74
2021/03/15 01:52:03;;;;;;;42.90;23.98;;;;;;;8.25;100.00;93388.25;10484783;28;20098;-74
2021/03/15 01:57:04;;;;;;;40.60;21.33;;;;;;;8.22;100.00;93383.50;10472607;28;20382;-74
2021/03/15 02:02:05;;;;;;;45.92;24.15;;;;;;;8.25;100.00;93384.75;10443028;28;20031;-74
2021/03/15 02:07:05;;;;;;;43.13;24.27;;;;;;;8.32;100.00;93375.28;10442602;28;20021;-74
2021/03/15 02:12:27;;;;;;;63.50;33.20;;;;;;;8.32;100.00;93364.59;10443185;28;20555;-74
2021/03/15 02:17:30;;;;;;;57.75;30.08;;;;;;;8.31;100.00;93359.53;10474671;28;20289;-74
2021/03/15 02:22:39;;;;;;;57.90;30.27;;;;;;;8.21;100.00;93355.91;10484366;28;20090;-73
2021/03/15 02:28:18;;;;;;;52.88;32.13;;;;;;;7.94;100.00;93342.44;10485040;28;20056;-73
2021/03/15 02:33:21;;;;;;;64.07;34.15;;;;;;;7.75;100.00;93339.78;10482761;28;20051;-74
2021/03/15 02:38:22;;;;;;;55.13;30.23;;;;;;;7.95;100.00;93333.31;10461632;28;20553;-73
2021/03/15 02:43:31;;;;;;;62.63;34.85;;;;;;;7.95;100.00;93328.75;10447780;28;20047;-74
2021/03/15 02:48:35;;;;;;;61.22;32.05;;;;;;;8.00;100.00;93333.25;10448119;28;20044;-74
2021/03/15 02:53:37;;;;;;;60.88;33.28;;;;;;;7.92;100.00;93324.00;10447666;28;20041;-74
2021/03/15 02:58:40;;;;;;;74.35;35.25;;;;;;;7.96;100.00;93322.31;10447523;28;20033;-74
2021/03/15 03:03:41;;;;;;;68.25;35.50;;;;;;;8.03;100.00;93317.41;10448730;28;20061;-74
2021/03/15 03:08:45;;;;;;;65.45;34.70;;;;;;;7.94;100.00;93305.78;10448552;28;20040;-74
2021/03/15 03:13:49;;;;;;;66.53;33.95;;;;;;;7.91;100.00;93301.03;10450443;28;20033;-74
2021/03/15 03:18:53;;;;;;;69.95;35.13;;;;;;;7.93;100.00;93290.81;10489164;28;20116;-74
2021/03/15 03:23:57;;;;;;;59.53;30.38;;;;;;;7.97;100.00;93293.72;10489957;28;20024;-74
2021/03/15 03:28:59;;;;;;;51.67;27.13;;;;;;;7.96;100.00;93300.13;10488466;28;20055;-74
2021/03/15 03:34:01;;;;;;;61.17;30.50;;;;;;;8.09;100.00;93290.56;10489105;28;20383;-74
2021/03/15 03:39:07;;;;;;;43.97;23.98;;;;;;;8.02;100.00;93272.22;10487894;28;20039;-74
2021/03/15 03:44:10;;;;;;;52.58;28.08;;;;;;;8.00;100.00;93264.47;10489094;28;20480;-74
2021/03/15 03:49:11;;;;;;;52.88;28.75;;;;;;;8.07;100.00;93268.69;10487477;28;20087;-74
2021/03/15 03:54:22;;;;;;;63.03;33.92;;;;;;;7.68;100.00;93273.28;10488374;28;20387;-74
2021/03/15 03:59:26;;;;;;;67.57;35.35;;;;;;;7.58;100.00;93263.53;10487420;28;20150;-74
2021/03/15 04:04:30;;;;;;;59.35;29.73;;;;;;;7.64;100.00;93251.66;10488337;28;20409;-74
2021/03/15 04:09:36;;;;;;;50.45;25.38;;;;;;;7.50;100.00;93240.13;10485469;28;20031;-74
2021/03/15 04:14:40;;;;;;;44.55;25.27;;;;;;;7.46;100.00;93234.56;10486548;28;20040;-74
2021/03/15 04:19:49;;;;;;;47.65;23.75;;;;;;;7.32;100.00;93231.03;10485094;28;20032;-74
2021/03/15 04:24:50;;;;;;;49.28;25.23;;;;;;;7.35;100.00;93228.59;10485332;28;20025;-74
2021/03/15 04:29:53;;;;;;;52.25;27.23;;;;;;;7.21;100.00;93226.94;10486250;28;20043;-74
2021/03/15 04:34:54;;;;;;;55.45;30.30;;;;;;;7.20;100.00;93228.81;10486572;28;20032;-73
2021/03/15 04:39:55;;;;;;;59.90;30.88;;;;;;;6.97;100.00;93217.88;10485851;28;20770;-74
2021/03/15 04:44:56;;;;;;;61.40;31.02;;;;;;;7.01;100.00;93221.56;10486443;28;20480;-73
2021/03/15 04:49:57;;;;;;;56.40;29.13;;;;;;;7.01;100.00;93213.56;10484574;28;20040;-73
2021/03/15 04:54:57;;;;;;;54.03;28.30;;;;;;;7.04;100.00;93222.09;10485449;28;20305;-73
2021/03/15 05:00:01;;;;;;;48.13;26.60;;;;;;;7.06;100.00;93214.56;10485046;28;20032;-74
2021/03/15 05:05:03;;;;;;;46.45;27.52;;;;;;;7.19;100.00;93201.28;10486004;28;20040;-74
2021/03/15 05:10:04;;;;;;;46.00;25.38;;;;;;;7.24;100.00;93200.44;10484439;28;20116;-74
2021/03/15 05:15:10;;;;;;;43.58;23.85;;;;;;;7.31;100.00;93200.88;10482924;28;20033;-74
2021/03/15 05:20:14;;;;;;;41.05;21.05;;;;;;;7.34;100.00;93192.25;10483749;28;20044;-73
2021/03/15 05:25:14;;;;;;;40.22;20.00;;;;;;;7.56;100.00;93193.50;10484447;28;20484;-73
2021/03/15 05:30:18;;;;;;;36.90;18.63;;;;;;;7.59;100.00;93184.94;10482317;28;20102;-73
2021/03/15 05:35:20;;;;;;;37.90;20.50;;;;;;;7.63;100.00;93191.28;10440611;28;20039;-73
2021/03/15 05:40:23;;;;;;;40.38;20.40;;;;;;;7.84;100.00;93178.34;10465209;28;20113;-73
2021/03/15 05:46:01;;;;;;;35.42;19.52;;;;;;;8.09;100.00;93175.50;10482858;28;20402;-73
2021/03/15 05:51:23;;;;;;;38.85;20.52;;;;;;;8.26;100.00;93181.09;10482063;28;20060;-71
2021/03/15 05:56:51;;;;;;;38.17;20.75;;;;;;;8.47;100.00;93186.06;10477799;28;20445;-72
2021/03/15 06:01:58;;;;;;;40.08;24.85;;;;;;;8.58;100.00;93190.13;10479275;28;20573;-70
2021/03/15 06:07:03;;;;;;;43.40;23.17;;;;;;;8.69;100.00;93196.06;10491865;28;20485;-69
2021/03/15 06:12:09;;;;;;;40.60;22.90;;;;;;;8.60;100.00;93185.28;10491762;28;20024;-69
2021/03/15 06:17:10;;;;;;;44.55;22.98;;;;;;;8.65;100.00;93184.38;10473954;28;20060;-70
2021/03/15 06:22:11;;;;;;;44.20;25.58;;;;;;;8.58;100.00;93175.94;10483031;28;20205;-70
2021/03/15 06:27:12;;;;;;;46.45;25.02;;;;;;;8.53;100.00;93171.50;10488645;28;20035;-70
2021/03/15 06:32:18;;;;;;;46.45;22.85;;;;;;;8.68;100.00;93189.16;10490362;28;20044;-70
2021/03/15 06:37:18;;;;;;;40.70;22.80;;;;;;;8.75;100.00;93178.81;10489100;28;20028;-71
2021/03/15 06:42:21;;;;;;;40.42;22.60;;;;;;;9.00;100.00;93179.34;10455747;28;20020;-71
2021/03/15 06:47:22;;;;;;;38.85;21.00;;;;;;;9.24;100.00;93185.25;10450102;28;20460;-71
2021/03/15 06:52:22;;;;;;;42.97;23.20;;;;;;;9.48;100.00;93176.13;10448095;28;20045;-70
2021/03/15 06:57:23;;;;;;;42.43;24.20;;;;;;;9.82;100.00;93165.94;10487052;28;20116;-71
2021/03/15 07:02:28;;;;;;;46.55;23.42;;;;;;;10.17;100.00;93158.06;10488949;28;20028;-71
2021/03/15 07:07:28;;;;;;;38.05;20.85;;;;;;;10.38;100.00;93151.09;10489621;28;20386;-71
2021/03/15 07:12:29;;;;;;;32.33;18.42;;;;;;;10.55;100.00;93153.03;10488118;28;20093;-71
2021/03/15 07:17:29;;;;;;;30.83;18.92;;;;;;;10.69;100.00;93147.53;10488184;28;20098;-70
2021/03/15 07:22:30;;;;;;;38.47;21.70;;;;;;;10.55;100.00;93141.50;10489106;28;20497;-70
2021/03/15 07:27:31;;;;;;;36.90;20.30;;;;;;;10.60;100.00;93131.41;10489158;28;20827;-71
2021/03/15 07:32:38;;;;;;;45.15;19.50;;;;;;;10.75;100.00;93124.78;10488092;28;20789;-71
2021/03/15 07:37:42;;;;;;;35.03;20.50;;;;;;;10.86;100.00;93129.88;10488459;28;20033;-70
2021/03/15 07:43:01;;;;;;;36.45;18.95;;;;;;;10.82;100.00;93126.22;10487797;28;20032;-72
2021/03/15 07:48:05;;;;;;;36.00;19.13;;;;;;;10.74;100.00;93119.72;10487488;28;20033;-70
2021/03/15 07:53:06;;;;;;;32.75;17.38;;;;;;;10.93;100.00;93114.06;10486828;28;20091;-70
2021/03/15 07:58:44;;;;;;;32.75;18.13;;;;;;;11.05;100.00;93114.22;10486128;28;20035;-70
2021/03/15 08:03:44;;;;;;;46.30;17.45;;;;;;;11.34;100.00;93096.66;10487582;28;20040;-70
2021/03/15 08:08:45;;;;;;;41.43;19.73;;;;;;;11.54;100.00;93091.72;10485679;28;20510;-71
2021/03/15 08:13:55;;;;;;;41.30;19.40;;;;;;;11.99;100.00;93087.81;10485840;28;20033;-70
2021/03/15 08:18:57;;;;;;;32.97;18.77;;;;;;;12.12;100.00;93076.84;10485786;28;20043;-71
2021/03/15 08:23:58;;;;;;;25.67;14.52;;;;;;;12.46;100.00;93071.59;10485489;28;20028;-70
2021/03/15 08:29:03;;;;;;;28.73;15.63;;;;;;;12.44;100.00;93066.53;10486076;28;20038;-70
2021/03/15 08:34:04;;;;;;;25.80;15.07;;;;;;;13.18;98.36;93066.19;10484245;28;20751;-70
2021/03/15 08:39:47;;;;;;;29.83;15.85;;;;;;;12.86;98.65;93056.94;10484371;28;20035;-70
2021/03/15 08:44:49;;;;;;;30.73;14.80;;;;;;;13.08;96.09;93053.13;10444612;28;20064;-70
2021/03/15 08:49:49;;;;;;;25.48;16.30;;;;;;;12.83;95.77;93045.69;10444012;28;20110;-70
2021/03/15 08:54:49;;;;;;;30.53;16.47;;;;;;;12.53;100.00;93042.25;10443070;28;20098;-70
2021/03/15 08:59:50;;;;;;;33.53;16.80;;;;;;;12.31;100.00;93032.56;10444548;28;20107;-70
2021/03/15 09:04:51;;;;;;;38.57;16.37;;;;;;;12.22;100.00;93026.44;10443859;28;20021;-70
2021/03/15 09:09:51;;;;;;;36.73;17.57;;;;;;;12.67;100.00;93006.97;10442322;28;20033;-71
2021/03/15 09:14:57;;;;;;;35.60;16.17;;;;;;;13.07;94.36;93003.78;10443143;28;20392;-71
2021/03/15 09:20:14;;;;;;;30.58;16.42;;;;;;;13.88;91.85;92994.56;10443095;28;20066;-71
2021/03/15 09:25:19;;;;;;;25.58;14.10;;;;;;;14.56;82.29;92979.66;10483224;28;20029;-71
2021/03/15 09:30:23;;;;;;;29.10;16.92;;;;;;;14.45;80.59;92974.72;10485470;28;20475;-70
2021/03/15 09:35:29;;;;;;;27.88;15.90;;;;;;;14.15;81.21;92974.19;10468109;28;20029;-72
2021/03/15 09:40:50;;;;;;;36.83;16.50;;;;;;;13.37;86.45;92973.22;10451700;28;20029;-70
2021/03/15 09:46:04;;;;;;;26.42;15.52;;;;;;;13.13;91.72;92958.50;10463135;28;20059;-70
2021/03/15 09:51:05;;;;;;;46.67;19.00;;;;;;;12.85;100.00;92956.41;10497977;28;20521;-71
2021/03/15 09:56:10;;;;;;;30.92;16.30;;;;;;;12.38;100.00;92948.53;10467040;28;20044;-70
2021/03/15 10:01:21;;;;;;;36.22;16.63;;;;;;;11.60;100.00;92942.47;10451230;28;20037;-72
2021/03/15 10:06:25;;;;;;;34.08;16.08;;;;;;;11.33;100.00;92933.72;10449730;28;20052;-70
2021/03/15 10:11:28;;;;;;;29.65;15.88;;;;;;;11.60;100.00;92923.63;10450337;28;20033;-71
2021/03/15 10:16:29;;;;;;;36.22;16.48;;;;;;;12.86;100.00;92914.06;10451006;28;20029;-71
2021/03/15 10:21:31;;;;;;;31.45;15.88;;;;;;;13.14;100.00;92915.03;10450670;28;20032;-71
2021/03/15 10:26:31;;;;;;;27.55;15.93;;;;;;;12.78;100.00;92904.91;10449799;28;20104;-71
2021/03/15 10:31:32;;;;;;;36.87;21.00;;;;;;;11.95;100.00;92896.56;10450284;28;20476;-71
2021/03/15 10:36:33;;;;;;;35.97;19.85;;;;;;;12.19;100.00;92887.03;10449459;28;20025;-71
2021/03/15 10:41:33;;;;;;;30.95;19.33;;;;;;;12.14;100.00;92883.44;10449564;28;20040;-71
2021/03/15 10:46:46;;;;;;;36.70;19.25;;;;;;;13.10;100.00;92870.97;10449647;28;20025;-71
2021/03/15 10:51:48;;;;;;;47.92;17.75;;;;;;;14.45;100.00;92846.91;10447557;28;20045;-71
2021/03/15 10:57:16;;;;;;;50.30;16.92;;;;;;;15.71;91.37;92840.06;10449559;28;20057;-72
2021/03/15 11:02:27;;;;;;;40.72;15.82;;;;;;;15.81;73.10;92830.63;10446279;28;20057;-71
2021/03/15 11:07:30;;;;;;;30.00;15.07;;;;;;;15.74;70.53;92822.31;10448652;28;20051;-72
2021/03/15 11:12:44;;;;;;;29.35;13.93;;;;;;;15.66;68.06;92815.94;10472987;28;20025;-72
2021/03/15 11:18:10;;;;;;;29.35;16.20;;;;;;;15.14;70.51;92798.09;10490121;28;20037;-71
2021/03/15 11:23:11;;;;;;;35.00;15.30;;;;;;;14.93;71.23;92790.22;10486093;28;20483;-71
2021/03/15 11:28:14;;;;;;;20.73;12.27;;;;;;;14.66;73.46;92784.53;10489947;28;20068;-71
2021/03/15 11:33:14;;;;;;;24.92;12.75;;;;;;;14.45;70.59;92785.50;10487806;28;20032;-71
2021/03/15 11:38:20;;;;;;;23.15;11.63;;;;;;;14.22;73.59;92787.19;10488473;28;20036;-71
2021/03/15 11:43:21;;;;;;;21.58;13.15;;;;;;;14.04;81.63;92786.69;10488138;28;20102;-71
2021/03/15 11:48:21;;;;;;;24.30;10.43;;;;;;;13.21;88.92;92774.22;10487122;28;20112;-70
2021/03/15 11:53:21;;;;;;;11.83;7.27;;;;;;;12.47;100.00;92768.75;10487869;28;20049;-71
2021/03/15 11:58:22;;;;;;;10.90;6.30;;;;;;;11.02;100.00;92765.38;10487793;28;20539;-70
2021/03/15 12:03:22;;;;;;;7.47;5.40;;;;;;;10.50;100.00;92765.63;10487142;28;20063;-71
2021/03/15 12:08:23;;;;;;;13.90;5.00;;;;;;;10.06;100.00;92761.09;10487509;28;20063;-70
2021/03/15 12:13:25;;;;;;;10.32;6.85;;;;;;;9.67;100.00;92760.19;10487291;28;20086;-71
2021/03/15 12:18:25;;;;;;;10.40;5.97;;;;;;;7.89;100.00;92776.25;10487040;28;20123;-70
2021/03/15 12:23:25;;;;;;;14.63;5.85;;;;;;;6.82;100.00;92793.53;10486830;28;20038;-70
2021/03/15 12:28:26;;;;;;;20.73;7.77;;;;;;;5.70;100.00;92789.88;10486854;28;20025;-71
2021/03/15 12:33:26;;;;;;;11.97;7.37;;;;;;;5.56;100.00;92775.72;10486484;28;20037;-71
2021/03/15 12:38:26;;;;;;;14.17;8.20;;;;;;;5.67;100.00;92785.13;10485726;28;20028;-71
2021/03/15 12:43:27;;;;;;;15.90;9.23;;;;;;;5.68;100.00;92783.25;10486746;28;20533;-70
2021/03/15 12:48:27;;;;;;;20.27;10.82;;;;;;;5.75;100.00;92791.66;10486422;28;20035;-70
2021/03/15 12:53:28;;;;;;;25.30;11.30;;;;;;;6.19;100.00;92790.44;10485147;28;20044;-70
2021/03/15 12:58:28;;;;;;;23.90;10.85;;;;;;;6.59;100.00;92787.34;10485845;28;20037;-70
2021/03/15 13:03:29;;;;;;;16.67;9.90;;;;;;;6.91;100.00;92791.00;10485994;28;20024;-70
2021/03/15 13:08:29;;;;;;;15.53;8.50;;;;;;;7.10;100.00;92793.53;10484170;28;20447;-71
2021/03/15 13:13:29;;;;;;;13.97;7.83;;;;;;;7.12;100.00;92797.47;10484801;28;20484;-71
2021/03/15 13:18:30;;;;;;;11.60;7.20;;;;;;;7.32;100.00;92806.94;10485902;28;20274;-71
2021/03/15 13:23:31;;;;;;;12.95;6.70;;;;;;;6.86;100.00;92823.13;10485249;28;20271;-70
2021/03/15 13:28:31;;;;;;;12.90;6.78;;;;;;;6.52;100.00;92832.28;10484688;28;20502;-70
2021/03/15 13:33:32;;;;;;;10.82;6.13;;;;;;;6.26;100.00;92846.84;10483917;28;20029;-70
2021/03/15 13:38:32;;;;;;;13.23;7.50;;;;;;;6.14;100.00;92842.00;10483219;28;20432;-70
2021/03/15 13:43:33;;;;;;;9.25;6.60;;;;;;;6.39;100.00;92845.31;10484070;28;20062;-70
2021/03/15 13:48:33;;;;;;;7.77;3.23;;;;;;;6.27;100.00;92859.13;10484869;28;20111;-70
2021/03/15 13:53:33;;;;;;;4.57;2.40;;;;;;;5.94;100.00;92876.94;10483691;28;20052;-70
2021/03/15 13:58:34;;;;;;;8.60;1.93;;;;;;;5.63;100.00;92888.81;10481043;28;20086;-70
2021/03/15 14:03:34;;;;;;;7.20;2.37;;;;;;;5.46;100.00;92893.88;10483296;28;20259;-70
2021/03/15 14:08:34;;;;;;;4.60;2.60;;;;;;;5.02;100.00;92902.91;10483658;28;20078;-71
2021/03/15 14:13:35;;;;;;;1.77;0.63;;;;;;;4.44;100.00;92904.56;10483520;28;20028;-70
2021/03/15 14:18:35;;;;;;;1.42;1.10;;;;;;;3.96;100.00;92918.47;10484347;28;20282;-70
2021/03/15 14:23:36;;;;;;;2.03;0.68;;;;;;;3.71;100.00;92936.19;10486011;28;20033;-70
2021/03/15 14:28:36;;;;;;;1.33;0.80;;;;;;;3.46;100.00;92947.75;10490262;28;20787;-71
2021/03/15 14:33:37;;;;;;;2.13;0.80;;;;;;;3.40;100.00;92943.50;10470071;28;20032;-71
2021/03/15 14:38:37;;;;;;;2.60;1.52;;;;;;;3.36;100.00;92942.47;10467629;28;20278;-71
2021/03/15 14:43:38;;;;;;;4.93;2.60;;;;;;;3.05;100.00;92953.19;10490751;28;20449;-71
2021/03/15 14:48:38;;;;;;;4.77;2.37;;;;;;;2.68;100.00;93012.69;10490203;28;20054;-71
2021/03/15 14:53:39;;;;;;;3.33;1.92;;;;;;;2.56;100.00;93031.53;10490576;28;20064;-71
2021/03/15 14:58:40;;;;;;;2.50;2.15;;;;;;;2.62;100.00;93041.06;10490259;28;20047;-70
2021/03/15 15:03:40;;;;;;;6.40;3.22;;;;;;;2.34;100.00;93034.44;10489782;28;20029;-71
2021/03/15 15:08:40;;;;;;;4.87;3.77;;;;;;;2.13;100.00;93047.66;10489819;28;20383;-70
2021/03/15 15:13:41;;;;;;;8.57;5.55;;;;;;;2.04;100.00;93030.69;10489826;28;20448;-71
2021/03/15 15:18:41;;;;;;;8.30;4.47;;;;;;;1.90;100.00;93041.00;10489188;28;20032;-70
2021/03/15 15:23:41;;;;;;;9.17;5.07;;;;;;;1.94;100.00;93052.66;10450009;28;20051;-70
2021/03/15 15:28:42;;;;;;;7.65;5.05;;;;;;;2.03;100.00;93050.28;10447620;28;20637;-70
2021/03/15 15:33:42;;;;;;;9.68;4.00;;;;;;;2.21;100.00;93055.09;10446723;28;20942;-71
2021/03/15 15:38:43;;;;;;;6.75;3.53;;;;;;;2.10;100.00;93056.13;10447016;28;20032;-71
2021/03/15 15:43:43;;;;;;;8.27;4.13;;;;;;;2.00;100.00;93045.50;10447097;28;20028;-71
2021/03/15 15:48:43;;;;;;;8.63;4.13;;;;;;;1.96;100.00;93049.75;10461401;28;20283;-71
2021/03/15 15:53:45;;;;;;;5.00;3.83;;;;;;;1.86;100.00;93055.81;10486357;28;20144;-71
2021/03/15 15:58:46;;;;;;;9.05;4.07;;;;;;;1.96;100.00;93071.72;10488508;28;20360;-70
2021/03/15 16:03:46;;;;;;;6.63;4.50;;;;;;;2.12;100.00;93050.56;10487505;28;20174;-70
2021/03/15 16:08:46;;;;;;;6.67;3.77;;;;;;;2.22;100.00;93047.94;10487437;28;20028;-70
2021/03/15 16:13:48;;;;;;;5.93;3.53;;;;;;;2.15;100.00;93063.28;10487473;28;20295;-73
2021/03/15 16:18:52;;;;;;;6.43;3.90;;;;;;;2.01;100.00;93052.38;10487260;28;20032;-73
2021/03/15 16:23:52;;;;;;;11.07;4.55;;;;;;;1.84;100.00;93063.19;10472779;28;20057;-73
2021/03/15 16:28:52;;;;;;;6.97;3.67;;;;;;;1.63;100.00;93071.09;10445914;28;20111;-73
2021/03/15 16:33:57;;;;;;;7.77;3.50;;;;;;;1.49;100.00;93077.91;10445374;28;20287;-72
2021/03/15 16:38:58;;;;;;;5.30;3.88;;;;;;;1.37;100.00;93080.75;10475778;28;20274;-72
2021/03/15 16:43:58;;;;;;;3.72;2.17;;;;;;;1.46;100.00;93075.75;10485485;28;20035;-73
2021/03/15 16:48:58;;;;;;;6.60;4.07;;;;;;;1.30;100.00;93059.81;10477202;28;20448;-69
2021/03/15 16:53:59;;;;;;;5.60;2.70;;;;;;;1.34;100.00;93066.19;10483840;28;20313;-70
2021/03/15 16:58:59;;;;;;;4.97;2.47;;;;;;;1.36;100.00;93084.44;10486292;28;20503;-70
2021/03/15 17:04:00;;;;;;;3.27;2.17;;;;;;;1.26;100.00;93100.28;10451356;28;20036;-69
2021/03/15 17:09:00;;;;;;;4.17;2.10;;;;;;;0.99;100.00;93101.16;10444098;28;20278;-72
2021/03/15 17:14:03;;;;;;;6.90;2.63;;;;;;;1.00;100.00;93092.94;10443875;28;20287;-73
2021/03/15 17:19:04;;;;;;;6.80;4.10;;;;;;;0.79;100.00;93094.66;10474094;28;20110;-72
2021/03/15 17:24:05;;;;;;;4.05;2.22;;;;;;;0.76;100.00;93103.09;10484859;28;20059;-72
2021/03/15 17:29:05;;;;;;;3.53;2.33;;;;;;;0.76;100.00;93092.53;10485338;28;20415;-72
2021/03/15 17:34:06;;;;;;;2.88;2.10;;;;;;;0.72;100.00;93102.00;10483705;28;20037;-71
2021/03/15 17:39:06;;;;;;;3.80;2.13;;;;;;;0.82;100.00;93114.50;10484798;28;20367;-73
2021/03/15 17:44:07;;;;;;;6.90;1.90;;;;;;;0.82;100.00;93096.81;10485522;28;20115;-73
2021/03/15 17:49:07;;;;;;;2.17;1.50;;;;;;;0.76;100.00;93108.38;10485485;28;20043;-73
2021/03/15 17:54:08;;;;;;;2.57;1.87;;;;;;;0.66;100.00;93108.31;10457421;28;20029;-73
2021/03/15 17:59:09;;;;;;;3.20;1.65;;;;;;;0.72;100.00;93096.72;10446055;28;20279;-73
2021/03/15 18:04:09;;;;;;;1.38;1.10;;;;;;;0.78;100.00;93093.09;10451614;28;20039;-74
2021/03/15 18:09:09;;;;;;;1.20;1.00;;;;;;;0.96;100.00;93106.94;10449051;28;20033;-72
2021/03/15 18:14:09;;;;;;;1.37;1.03;;;;;;;1.12;100.00;93099.94;10449827;28;20120;-70
2021/03/15 18:19:10;;;;;;;1.30;1.20;;;;;;;1.26;100.00;93095.00;10450936;28;20093;-70
2021/03/15 18:24:11;;;;;;;1.20;0.77;;;;;;;1.22;100.00;93094.69;10450696;28;20029;-70
2021/03/15 18:29:11;;;;;;;2.13;1.17;;;;;;;1.09;100.00;93092.47;10450439;28;20025;-70
2021/03/15 18:34:12;;;;;;;1.10;1.00;;;;;;;1.01;100.00;93086.63;10450729;28;20491;-70
2021/03/15 18:39:12;;;;;;;0.93;0.50;;;;;;;1.02;100.00;93087.44;10449856;28;20021;-71
2021/03/15 18:44:12;;;;;;;1.25;0.77;;;;;;;1.11;100.00;93088.53;10449958;28;20040;-70
2021/03/15 18:49:13;;;;;;;1.50;0.97;;;;;;;1.24;100.00;93076.69;10449603;28;20052;-71
2021/03/15 18:54:13;;;;;;;2.80;1.40;;;;;;;1.57;100.00;93077.41;10448124;28;20029;-72
2021/03/15 18:59:13;;;;;;;1.08;0.90;;;;;;;1.74;100.00;93087.81;10448371;28;20522;-73
2021/03/15 19:04:14;;;;;;;2.20;1.87;;;;;;;1.86;100.00;93069.84;10450618;28;20029;-73
2021/03/15 19:09:15;;;;;;;1.85;0.85;;;;;;;1.92;100.00;93062.69;10447379;28;20060;-73
2021/03/15 19:14:15;;;;;;;3.47;0.73;;;;;;;1.91;100.00;93062.97;10448316;28;20476;-73
2021/03/15 19:19:16;;;;;;;3.73;0.90;;;;;;;2.01;100.00;93077.03;10448329;28;20078;-73
2021/03/15 19:24:16;;;;;;;1.30;1.13;;;;;;;2.09;100.00;93102.22;10454314;28;20028;-73
2021/03/15 19:29:17;;;;;;;3.35;1.42;;;;;;;1.92;100.00;93104.31;10489440;28;20275;-73
2021/03/15 19:34:17;;;;;;;2.40;1.30;;;;;;;1.95;100.00;93114.38;10489269;28;20025;-73
2021/03/15 19:39:18;;;;;;;1.53;1.00;;;;;;;1.83;100.00;93114.59;10453601;28;20083;-72
2021/03/15 19:44:21;;;;;;;2.70;1.35;;;;;;;1.98;100.00;93129.75;10447376;28;20274;-73
2021/03/15 19:49:22;;;;;;;1.20;0.65;;;;;;;1.93;100.00;93125.22;10447209;28;20052;-73
2021/03/15 19:54:23;;;;;;;1.15;0.73;;;;;;;1.73;100.00;93133.09;10447241;28;20040;-71
2021/03/15 19:59:23;;;;;;;1.80;0.90;;;;;;;1.83;100.00;93131.28;10446862;28;20372;-71
2021/03/15 20:04:23;;;;;;;2.72;1.30;;;;;;;1.75;100.00;93121.19;10466143;28;20501;-76
2021/03/15 20:09:28;;;;;;;1.73;0.80;;;;;;;1.65;100.00;93102.59;10488970;28;20077;-72
2021/03/15 20:14:29;;;;;;;1.33;0.82;;;;;;;1.60;100.00;93097.28;10489062;28;20020;-71
2021/03/15 20:19:30;;;;;;;1.00;1.00;;;;;;;1.82;100.00;93105.06;10488219;28;20035;-69
2021/03/15 20:24:31;;;;;;;5.10;1.25;;;;;;;2.02;100.00;93099.03;10487096;28;20700;-69
2021/03/15 20:29:32;;;;;;;2.45;1.00;;;;;;;2.25;100.00;93100.44;10447179;28;20028;-69
2021/03/15 20:34:33;;;;;;;5.20;1.33;;;;;;;2.19;100.00;93096.97;10446443;28;20464;-69
2021/03/15 20:39:34;;;;;;;1.85;1.20;;;;;;;2.27;100.00;93097.50;10446881;28;20029;-69
2021/03/15 20:44:35;;;;;;;0.70;0.70;;;;;;;2.37;100.00;93102.81;10446312;28;20016;-69
2021/03/15 20:49:35;;;;;;;1.92;0.73;;;;;;;2.38;100.00;93097.25;10446142;28;20044;-69
2021/03/15 20:54:36;;;;;;;2.77;0.93;;;;;;;2.46;100.00;93092.53;10446065;28;20091;-72
2021/03/15 20:59:36;;;;;;;2.37;1.00;;;;;;;2.55;100.00;93105.00;10455609;28;20032;-71
2021/03/15 21:04:36;;;;;;;1.27;1.00;;;;;;;2.65;100.00;93100.75;10487234;28;20764;-72
2021/03/15 21:09:37;;;;;;;0.97;0.77;;;;;;;2.34;100.00;93095.41;10487105;28;20090;-72
2021/03/15 21:14:37;;;;;;;1.73;1.10;;;;;;;2.51;100.00;93082.72;10486894;28;20450;-71
2021/03/15 21:19:37;;;;;;;2.53;1.00;;;;;;;2.56;100.00;93073.97;10485265;28;20484;-72
2021/03/15 21:24:38;;;;;;;0.60;0.60;;;;;;;2.29;100.00;93063.56;10459031;28;20450;-72
2021/03/15 21:29:38;;;;;;;0.70;0.70;;;;;;;2.31;100.00;93050.88;10478293;28;20266;-72
2021/03/15 21:34:38;;;;;;;1.00;0.90;;;;;;;2.00;100.00;93046.31;10490693;28;20547;-71
2021/03/15 21:39:39;;;;;;;0.82;0.68;;;;;;;2.00;100.00;93048.16;10495192;28;20541;-72
2021/03/15 21:44:41;;;;;;;2.25;1.17;;;;;;;1.88;100.00;93028.00;10490579;28;20025;-71
2021/03/15 21:49:43;;;;;;;2.38;0.77;;;;;;;1.86;100.00;93046.00;10494592;28;20105;-72
2021/03/15 21:54:43;;;;;;;1.13;0.90;;;;;;;1.98;100.00;93044.97;10493810;28;20032;-72
2021/03/15 21:59:44;;;;;;;0.65;0.60;;;;;;;2.17;100.00;93018.78;10494020;28;20028;-72
2021/03/15 22:04:44;;;;;;;0.70;0.70;;;;;;;2.22;100.00;93026.75;10492001;28;20062;-71
2021/03/15 22:09:45;;;;;;;2.20;0.90;;;;;;;2.39;100.00;93026.50;10493661;28;20032;-71
2021/03/15 22:14:45;;;;;;;1.67;1.07;;;;;;;2.28;100.00;93020.38;10492983;28;20032;-74
2021/03/15 22:19:45;;;;;;;1.20;0.83;;;;;;;2.41;100.00;93023.56;10491937;28;20031;-74
2021/03/15 22:24:46;;;;;;;6.77;1.10;;;;;;;2.46;100.00;93013.75;10489535;28;20185;-73
2021/03/15 22:29:46;;;;;;;1.07;0.73;;;;;;;2.34;100.00;93013.22;10490893;28;20388;-74
2021/03/15 22:34:47;;;;;;;0.77;0.77;;;;;;;2.18;100.00;93017.72;10490176;28;20649;-73
2021/03/15 22:39:47;;;;;;;1.55;0.93;;;;;;;2.43;100.00;93024.09;10491947;28;20036;-74
2021/03/15 22:44:47;;;;;;;2.30;1.00;;;;;;;2.64;100.00;93023.03;10491696;28;20113;-73
2021/03/15 22:49:48;;;;;;;1.30;1.20;;;;;;;2.51;100.00;93019.06;10491426;28;20057;-73
2021/03/15 22:54:49;;;;;;;0.90;0.90;;;;;;;2.50;100.00;93022.78;10490964;28;20593;-74
2021/03/15 22:59:50;;;;;;;1.63;1.10;;;;;;;2.07;100.00;93022.22;10491372;28;20024;-74
2021/03/15 23:04:51;;;;;;;1.30;1.10;;;;;;;2.00;100.00;93019.03;10490984;28;20016;-74